createdAt,value
2024-02-13T00:02:53.887Z,100179.69
2024-02-13T00:06:56.009Z,100184.75
2024-02-13T00:10:57.883Z,100177.78
2024-02-13T00:14:59.815Z,100186.44
2024-02-13T00:19:03.243Z,100191.38
2024-02-13T00:23:05.095Z,100197.50
2024-02-13T00:27:06.928Z,100202.72
2024-02-13T00:31:08.972Z,100207.19
2024-02-13T00:35:12.330Z,100217.78
2024-02-13T00:39:14.171Z,100219.88
2024-02-13T00:43:16.035Z,100214.31
2024-02-13T00:47:17.630Z,100215.47
2024-02-13T00:51:20.998Z,100216.22
2024-02-13T00:55:22.711Z,100227.38
2024-02-13T00:59:25.245Z,100235.66
2024-02-13T01:03:27.812Z,100233.34
2024-02-13T01:07:31.537Z,100239.09
2024-02-13T01:11:33.192Z,100236.81
2024-02-13T01:15:34.890Z,100257.13
2024-02-13T01:19:36.587Z,100255.34
2024-02-13T01:23:39.891Z,100263.22
2024-02-13T01:27:41.938Z,100264.00
2024-02-13T01:31:43.786Z,100266.69
2024-02-13T01:35:45.506Z,100276.91
2024-02-13T01:39:48.638Z,100282.22
2024-02-13T01:43:50.468Z,100275.50
2024-02-13T01:47:52.595Z,100278.09
2024-02-13T01:51:54.417Z,100284.84
2024-02-13T01:55:59.050Z,100291.00
2024-02-13T02:00:00.832Z,100283.69
2024-02-13T02:04:04.448Z,100281.16
2024-02-13T02:08:07.522Z,100284.84
2024-02-13T02:12:10.749Z,100288.44
2024-02-13T02:16:13.073Z,100287.59
2024-02-13T02:20:15.618Z,100287.78
2024-02-13T02:24:17.240Z,100286.16
2024-02-13T02:28:20.681Z,100297.91
2024-02-13T02:32:22.493Z,100291.97
2024-02-13T02:36:24.191Z,100300.03
2024-02-13T02:40:26.102Z,100298.94
2024-02-13T02:44:29.359Z,100293.63
2024-02-13T02:48:31.463Z,100297.25
2024-02-13T02:52:33.351Z,100300.59
2024-02-13T02:56:35.114Z,100297.59
2024-02-13T03:00:39.356Z,100311.22
2024-02-13T03:04:40.988Z,100307.00
2024-02-13T03:08:43.041Z,100303.72
2024-02-13T03:12:44.794Z,100307.13
2024-02-13T03:16:47.843Z,100313.34
2024-02-13T03:20:49.996Z,100320.06
2024-02-13T03:24:52.942Z,100322.41
2024-02-13T03:28:54.770Z,100324.94
2024-02-13T03:32:57.982Z,100320.44
2024-02-13T03:36:59.884Z,100324.94
2024-02-13T03:41:01.686Z,100327.31
2024-02-13T03:45:03.951Z,100338.63
2024-02-13T03:49:07.663Z,100334.25
2024-02-13T03:53:11.954Z,100334.88
2024-02-13T03:57:13.822Z,100337.28
2024-02-13T04:01:15.614Z,100336.63
2024-02-13T04:05:18.802Z,100338.75
2024-02-13T04:09:21.011Z,100348.19
2024-02-13T04:13:22.679Z,100345.66
2024-02-13T04:17:24.829Z,100340.31
2024-02-13T04:21:27.914Z,100340.38
2024-02-13T04:25:29.937Z,100341.59
2024-02-13T04:29:31.756Z,100355.31
2024-02-13T04:33:33.509Z,100350.09
2024-02-13T04:37:37.142Z,100354.88
2024-02-13T04:41:38.879Z,100360.03
2024-02-13T04:45:40.555Z,100349.47
2024-02-13T04:49:42.393Z,100351.09
2024-02-13T04:53:45.811Z,100351.91
2024-02-13T04:57:47.690Z,100353.88
2024-02-13T05:01:49.372Z,100360.34
2024-02-13T05:05:51.107Z,100365.34
2024-02-13T05:09:54.330Z,100365.25
2024-02-13T05:13:58.965Z,100371.19
2024-02-13T05:18:02.438Z,100379.69
2024-02-13T05:22:04.543Z,100371.28
2024-02-13T05:26:07.603Z,100368.06
2024-02-13T05:30:10.082Z,100371.47
2024-02-13T05:34:12.026Z,100357.25
2024-02-13T05:38:13.874Z,100361.53
2024-02-13T05:42:16.968Z,100351.63
2024-02-13T05:46:18.786Z,100367.81
2024-02-13T05:50:20.692Z,100381.38
2024-02-13T05:54:22.553Z,100385.72
2024-02-13T05:58:25.558Z,100382.56
2024-02-13T06:02:27.272Z,100386.75
2024-02-13T06:06:29.470Z,100377.41
2024-02-13T06:10:31.429Z,100377.56
2024-02-13T06:14:35.114Z,100379.31
2024-02-13T06:18:37.181Z,100376.78
2024-02-13T06:22:38.933Z,100380.38
2024-02-13T06:26:40.614Z,100389.69
2024-02-13T06:30:44.063Z,100387.00
2024-02-13T06:34:46.045Z,100379.06
2024-02-13T06:38:47.799Z,100381.56
2024-02-13T06:42:49.559Z,100381.09
2024-02-13T06:46:52.730Z,100396.09
2024-02-13T06:50:54.449Z,100398.88
2024-02-13T06:54:56.098Z,100408.81
2024-02-13T06:58:57.949Z,100411.28
2024-02-13T07:03:01.111Z,100424.44
2024-02-13T07:07:13.857Z,100419.34
2024-02-13T07:11:21.417Z,100413.31
2024-02-13T07:15:23.313Z,100412.13
2024-02-13T07:19:26.694Z,100423.50
2024-02-13T07:23:28.537Z,100419.06
2024-02-13T07:27:30.120Z,100433.97
2024-02-13T07:31:31.764Z,100445.22
2024-02-13T07:35:34.945Z,100450.06
2024-02-13T07:39:36.802Z,100445.16
2024-02-13T07:43:38.417Z,100450.06
2024-02-13T07:47:40.088Z,100457.31
2024-02-13T07:51:43.142Z,100452.09
2024-02-13T07:55:44.748Z,100460.97
2024-02-13T07:59:47.117Z,100469.38
2024-02-13T08:03:49.212Z,100478.09
2024-02-13T08:07:52.674Z,100473.66
2024-02-13T08:11:54.451Z,100480.72
2024-02-13T08:15:56.121Z,100478.84
2024-02-13T08:19:57.786Z,100481.63
2024-02-13T08:24:00.785Z,100482.00
2024-02-13T08:28:02.484Z,100493.69
2024-02-13T08:32:05.321Z,100493.50
2024-02-13T08:36:08.215Z,100495.16
2024-02-13T08:40:12.555Z,100496.19
2024-02-13T08:44:14.185Z,100501.94
2024-02-13T08:48:16.076Z,100496.59
2024-02-13T08:52:17.758Z,100511.63
2024-02-13T08:56:20.821Z,100506.09
2024-02-13T09:00:22.820Z,100510.84
2024-02-13T09:04:24.777Z,100520.28
2024-02-13T09:08:26.529Z,100507.06
2024-02-13T09:12:29.632Z,100527.88
2024-02-13T09:16:31.405Z,100531.28
2024-02-13T09:20:33.208Z,100535.25
2024-02-13T09:24:34.877Z,100530.66
2024-02-13T09:28:37.918Z,100539.84
2024-02-13T09:32:39.747Z,100535.59
2024-02-13T09:36:42.308Z,100537.47
2024-02-13T09:40:44.084Z,100527.06
2024-02-13T09:44:47.197Z,100538.34
2024-02-13T09:48:50.120Z,100525.88
2024-02-13T09:52:54.383Z,100518.16
2024-02-13T09:56:58.744Z,100541.00
2024-02-13T10:01:02.493Z,100542.78
2024-02-13T10:05:04.639Z,100548.22
2024-02-13T10:09:06.828Z,100557.31
2024-02-13T10:13:08.446Z,100560.56
2024-02-13T10:17:11.834Z,100564.38
2024-02-13T10:21:14.480Z,100570.03
2024-02-13T10:25:16.901Z,100558.09
2024-02-13T10:29:18.515Z,100563.97
2024-02-13T10:33:21.613Z,100574.13
2024-02-13T10:37:26.422Z,100569.28
2024-02-13T10:41:28.224Z,100563.75
2024-02-13T10:45:30.362Z,100560.25
2024-02-13T10:49:43.906Z,100557.31
2024-02-13T10:53:47.773Z,100559.75
2024-02-13T10:57:51.498Z,100562.22
2024-02-13T11:01:55.788Z,100551.31
2024-02-13T11:05:59.024Z,100551.44
2024-02-13T11:10:00.986Z,100546.19
2024-02-13T11:14:02.824Z,100547.56
2024-02-13T11:18:10.013Z,100538.56
2024-02-13T11:22:13.260Z,100530.41
2024-02-13T11:26:18.983Z,100542.22
2024-02-13T11:30:21.729Z,100540.28
2024-02-13T11:34:38.977Z,100538.06
2024-02-13T11:38:42.662Z,100524.47
2024-02-13T11:42:44.343Z,100532.31
2024-02-13T11:46:49.967Z,100521.19
2024-02-13T11:50:51.695Z,100513.59
2024-02-13T11:54:54.836Z,100509.91
2024-02-13T11:59:03.522Z,100511.53
2024-02-13T12:03:05.517Z,100513.47
2024-02-13T12:07:07.673Z,100515.91
2024-02-13T12:11:11.082Z,100516.81
2024-02-13T12:15:13.165Z,100521.06
2024-02-13T12:19:15.569Z,100516.69
2024-02-13T12:23:17.607Z,100508.66
2024-02-13T12:27:20.698Z,100503.28
2024-02-13T12:31:23.998Z,100496.84
2024-02-13T12:35:25.708Z,100512.03
2024-02-13T12:39:27.723Z,100511.38
2024-02-13T12:43:31.187Z,100508.88
2024-02-13T12:47:32.903Z,100501.53
2024-02-13T12:51:34.935Z,100505.53
2024-02-13T12:55:37.563Z,100514.84
2024-02-13T12:59:40.698Z,100510.91
2024-02-13T13:03:42.555Z,100522.84
2024-02-13T13:07:46.799Z,100498.84
2024-02-13T13:11:49.171Z,100515.94
2024-02-13T13:15:52.585Z,100509.47
2024-02-13T13:19:54.371Z,100504.16
2024-02-13T13:23:57.581Z,100502.56
2024-02-13T13:27:59.597Z,100502.41
2024-02-13T13:32:02.706Z,100505.38
2024-02-13T13:36:04.644Z,100488.16
2024-02-13T13:40:08.389Z,100492.84
2024-02-13T13:44:10.905Z,100482.78
2024-02-13T13:48:16.263Z,100481.41
2024-02-13T13:52:18.121Z,100485.31
2024-02-13T13:56:19.994Z,100476.84
2024-02-13T14:00:21.909Z,100470.03
2024-02-13T14:04:25.253Z,100462.06
2024-02-13T14:08:27.262Z,100462.34
2024-02-13T14:12:29.210Z,100474.59
2024-02-13T14:16:31.111Z,100467.81
2024-02-13T14:20:34.579Z,100479.00
2024-02-13T14:24:36.338Z,100466.03
2024-02-13T14:28:37.984Z,100475.19
2024-02-13T14:32:39.816Z,100470.53
2024-02-13T14:36:44.850Z,100470.28
2024-02-13T14:40:47.182Z,100478.06
2024-02-13T14:44:48.999Z,100475.44
2024-02-13T14:48:51.110Z,100483.50
2024-02-13T14:52:57.621Z,100464.56
2024-02-13T14:56:59.649Z,100470.94
2024-02-13T15:01:01.542Z,100467.75
2024-02-13T15:05:03.570Z,100467.22
2024-02-13T15:09:06.645Z,100467.03
2024-02-13T15:13:08.367Z,100466.06
2024-02-13T15:17:16.059Z,100456.53
2024-02-13T15:21:18.039Z,100447.88
2024-02-13T15:25:21.123Z,100444.56
2024-02-13T15:29:22.931Z,100461.53
2024-02-13T15:33:24.691Z,100457.78
2024-02-13T15:37:26.511Z,100449.84
2024-02-13T15:41:30.617Z,100444.16
2024-02-13T15:45:33.170Z,100453.34
2024-02-13T15:49:36.106Z,100453.34
2024-02-13T15:53:38.033Z,100453.34
2024-02-13T15:57:42.691Z,100454.97
2024-02-13T16:01:44.445Z,100448.94
2024-02-13T16:05:46.269Z,100457.53
2024-02-13T16:09:48.011Z,100453.72
2024-02-13T16:13:51.008Z,100463.44
2024-02-13T16:17:52.814Z,100461.28
2024-02-13T16:21:54.537Z,100454.50
2024-02-13T16:25:56.317Z,100458.03
2024-02-13T16:29:59.460Z,100468.84
2024-02-13T16:34:01.389Z,100466.41
2024-02-13T16:38:04.751Z,100470.50
2024-02-13T16:42:06.688Z,100471.88
2024-02-13T16:46:10.031Z,100478.94
2024-02-13T16:50:11.716Z,100485.59
2024-02-13T16:54:13.457Z,100484.31
2024-02-13T16:58:16.236Z,100485.84
2024-02-13T17:02:19.319Z,100486.34
2024-02-13T17:06:21.275Z,100475.94
2024-02-13T17:10:23.151Z,100481.31
2024-02-13T17:14:24.883Z,100478.75
2024-02-13T17:18:28.509Z,100485.22
2024-02-13T17:22:30.276Z,100482.41
2024-02-13T17:26:32.369Z,100476.16
2024-02-13T17:30:34.234Z,100473.09
2024-02-13T17:34:38.157Z,100468.75
2024-02-13T17:38:40.033Z,100478.69
2024-02-13T17:42:41.877Z,100470.22
2024-02-13T17:46:43.496Z,100470.22
2024-02-13T17:50:47.226Z,100465.81
2024-02-13T17:54:48.868Z,100486.34
2024-02-13T17:58:50.605Z,100479.13
2024-02-13T18:02:52.290Z,100474.91
2024-02-13T18:06:55.607Z,100467.72
2024-02-13T18:10:57.571Z,100469.00
2024-02-13T18:14:59.501Z,100473.38
2024-02-13T18:19:02.005Z,100476.38
2024-02-13T18:23:05.512Z,100473.09
2024-02-13T18:27:11.254Z,100468.16
2024-02-13T18:31:13.095Z,100459.03
2024-02-13T18:35:14.907Z,100457.06
2024-02-13T18:39:18.942Z,100445.56
2024-02-13T18:43:20.581Z,100450.50
2024-02-13T18:47:22.264Z,100445.31
2024-02-13T18:51:24.344Z,100452.03
2024-02-13T18:55:27.350Z,100460.50
2024-02-13T18:59:28.982Z,100457.13
2024-02-13T19:03:31.114Z,100454.06
2024-02-13T19:07:32.746Z,100456.78
2024-02-13T19:11:35.798Z,100454.75
2024-02-13T19:15:37.471Z,100451.50
2024-02-13T19:19:40.417Z,100454.22
2024-02-13T19:23:42.136Z,100448.75
2024-02-13T19:27:45.468Z,100443.72
2024-02-13T19:31:47.091Z,100447.75
2024-02-13T19:35:51.595Z,100436.25
2024-02-13T19:39:53.338Z,100440.19
2024-02-13T19:43:56.434Z,100436.63
2024-02-13T19:47:58.176Z,100430.88
2024-02-13T19:51:59.976Z,100438.53
2024-02-13T19:56:01.901Z,100433.44
2024-02-13T20:00:07.452Z,100426.78
2024-02-13T20:04:11.456Z,100424.59
2024-02-13T20:08:13.216Z,100419.97
2024-02-13T20:12:14.998Z,100428.41
2024-02-13T20:16:17.963Z,100403.31
2024-02-13T20:20:20.002Z,100425.38
2024-02-13T20:24:21.597Z,100418.13
2024-02-13T20:28:23.349Z,100421.31
2024-02-13T20:32:27.233Z,100420.56
2024-02-13T20:36:29.003Z,100420.66
2024-02-13T20:40:30.686Z,100410.66
2024-02-13T20:44:32.527Z,100421.84
2024-02-13T20:48:35.687Z,100412.56
2024-02-13T20:52:37.943Z,100420.94
2024-02-13T20:56:39.675Z,100419.97
2024-02-13T21:00:41.559Z,100421.13
2024-02-13T21:04:45.216Z,100408.56
2024-02-13T21:08:46.969Z,100400.72
2024-02-13T21:12:48.663Z,100398.00
2024-02-13T21:16:50.343Z,100398.00
2024-02-13T21:20:53.645Z,100394.16
2024-02-13T21:24:55.343Z,100390.63
2024-02-13T21:28:57.120Z,100398.28
2024-02-13T21:32:58.842Z,100401.28
2024-02-13T21:37:01.846Z,100392.63
2024-02-13T21:41:03.664Z,100396.91
2024-02-13T21:45:06.280Z,100396.25
2024-02-13T21:49:08.231Z,100392.81
2024-02-13T21:53:11.526Z,100382.41
2024-02-13T21:57:13.567Z,100382.03
2024-02-13T22:01:16.637Z,100384.69
2024-02-13T22:05:18.317Z,100385.03
2024-02-13T22:09:21.271Z,100377.31
2024-02-13T22:13:24.225Z,100377.38
2024-02-13T22:17:25.949Z,100381.38
2024-02-13T22:21:28.148Z,100374.50
2024-02-13T22:25:31.409Z,100379.84
2024-02-13T22:29:33.533Z,100386.94
2024-02-13T22:33:35.836Z,100379.03
2024-02-13T22:37:37.717Z,100370.84
2024-02-13T22:41:40.795Z,100377.50
2024-02-13T22:45:43.690Z,100379.16
2024-02-13T22:49:45.351Z,100378.03
2024-02-13T22:53:47.264Z,100367.47
2024-02-13T22:57:50.366Z,100366.19
2024-02-13T23:01:51.930Z,100362.16
2024-02-13T23:05:54.568Z,100358.50
2024-02-13T23:09:56.373Z,100361.34
2024-02-13T23:13:59.630Z,100351.56
2024-02-13T23:18:01.566Z,100354.25
2024-02-13T23:22:04.145Z,100348.94
2024-02-13T23:26:05.801Z,100345.63
2024-02-13T23:30:10.647Z,100342.44
2024-02-13T23:34:12.495Z,100331.06
2024-02-13T23:38:14.267Z,100331.13
2024-02-13T23:42:15.895Z,100330.69
2024-02-13T23:46:19.030Z,100328.50
2024-02-13T23:50:20.681Z,100325.50
2024-02-13T23:54:22.465Z,100321.19
2024-02-13T23:58:25.743Z,100320.09
